createdAt,value
2022-11-06T00:31:13.443Z,101857.28
2022-11-06T00:33:41.345Z,101851.97
2022-11-06T00:36:09.885Z,101853.72
2022-11-06T00:38:37.364Z,101852.00
2022-11-06T00:41:12.998Z,101860.63
2022-11-06T00:43:40.889Z,101865.78
2022-11-06T00:46:09.320Z,101870.97
2022-11-06T00:48:37.227Z,101871.81
2022-11-06T00:51:04.831Z,101872.69
2022-11-06T00:53:32.916Z,101857.00
2022-11-06T00:56:07.557Z,101862.97
2022-11-06T00:58:35.325Z,101859.47
2022-11-06T01:01:06.473Z,101853.41
2022-11-06T01:03:33.974Z,101855.16
2022-11-06T01:06:16.099Z,101857.88
2022-11-06T01:08:43.891Z,101857.06
2022-11-06T01:11:15.183Z,101857.09
2022-11-06T01:13:43.407Z,101855.28
2022-11-06T01:16:11.670Z,101856.84
2022-11-06T01:18:39.512Z,101862.03
2022-11-06T01:21:07.820Z,101859.47
2022-11-06T01:23:35.059Z,101855.91
2022-11-06T01:26:03.465Z,101854.19
2022-11-06T01:28:31.159Z,101854.19
2022-11-06T01:31:02.677Z,101857.41
2022-11-06T01:33:29.923Z,101858.28
2022-11-06T01:35:56.852Z,101855.72
2022-11-06T01:38:24.428Z,101840.00
2022-11-06T01:40:51.380Z,101850.63
2022-11-06T01:43:23.011Z,101849.72
2022-11-06T01:45:51.695Z,101845.47
2022-11-06T01:48:20.792Z,101844.50
2022-11-06T01:50:49.342Z,101842.88
2022-11-06T01:53:17.066Z,101842.00
2022-11-06T01:55:46.039Z,101838.38
2022-11-06T01:58:16.177Z,101833.25
2022-11-06T02:00:43.748Z,101830.81
2022-11-06T02:03:12.798Z,101832.59
2022-11-06T02:05:40.568Z,101837.78
2022-11-06T02:08:09.176Z,101817.84
2022-11-06T02:10:36.558Z,101825.69
2022-11-06T02:13:10.968Z,101825.53
2022-11-06T02:15:56.280Z,101815.28
2022-11-06T02:18:32.478Z,101815.19
2022-11-06T02:21:10.119Z,101809.16
2022-11-06T02:23:56.151Z,101811.78
2022-11-06T02:26:41.568Z,101813.50
2022-11-06T02:29:13.298Z,101813.44
2022-11-06T02:31:42.621Z,101810.09
2022-11-06T02:34:15.057Z,101809.25
2022-11-06T02:36:52.488Z,101802.25
2022-11-06T02:39:22.236Z,101803.81
2022-11-06T02:41:51.310Z,101805.66
2022-11-06T02:44:20.761Z,101805.06
2022-11-06T02:46:56.258Z,101801.56
2022-11-06T02:49:33.107Z,101803.31
2022-11-06T02:52:04.169Z,101794.69
2022-11-06T02:54:34.541Z,101788.50
2022-11-06T02:57:05.515Z,101784.59
2022-11-06T02:59:51.583Z,101787.28
2022-11-06T03:02:22.074Z,101785.50
2022-11-06T03:04:55.404Z,101777.84
2022-11-06T03:07:29.008Z,101780.25
2022-11-06T03:09:56.713Z,101785.47
2022-11-06T03:12:24.040Z,101780.28
2022-11-06T03:14:57.334Z,101773.47
2022-11-06T03:17:31.224Z,101775.22
2022-11-06T03:20:06.368Z,101771.88
2022-11-06T03:22:40.512Z,101772.78
2022-11-06T03:25:10.211Z,101758.81
2022-11-06T03:27:42.198Z,101764.84
2022-11-06T03:30:15.258Z,101765.72
2022-11-06T03:32:50.152Z,101782.09
2022-11-06T03:35:20.143Z,101775.31
2022-11-06T03:37:51.277Z,101769.19
2022-11-06T03:40:20.884Z,101770.81
2022-11-06T03:42:49.685Z,101773.50
2022-11-06T03:45:19.156Z,101772.63
2022-11-06T03:47:48.998Z,101776.06
2022-11-06T03:50:18.939Z,101770.91
2022-11-06T03:52:53.261Z,101771.81
2022-11-06T03:55:24.083Z,101774.34
2022-11-06T03:57:54.234Z,101772.56
2022-11-06T04:00:21.111Z,101776.81
2022-11-06T04:02:50.770Z,101773.34
2022-11-06T04:05:23.008Z,101772.47
2022-11-06T04:08:14.278Z,101771.31
2022-11-06T04:11:02.953Z,101769.69
2022-11-06T04:13:49.757Z,101768.88
2022-11-06T04:16:17.260Z,101767.13
2022-11-06T04:18:44.418Z,101760.28
2022-11-06T04:21:23.590Z,101769.94
2022-11-06T04:24:13.749Z,101761.28
2022-11-06T04:26:50.933Z,101768.25
2022-11-06T04:29:31.388Z,101768.22
2022-11-06T04:32:16.749Z,101767.47
2022-11-06T04:34:44.003Z,101768.31
2022-11-06T04:37:15.360Z,101768.44
2022-11-06T04:39:42.557Z,101762.41
2022-11-06T04:42:09.446Z,101766.47
2022-11-06T04:44:39.593Z,101759.50
2022-11-06T04:47:09.569Z,101768.31
2022-11-06T04:49:39.176Z,101769.03
2022-11-06T04:52:08.104Z,101769.16
2022-11-06T04:54:35.349Z,101769.94
2022-11-06T04:57:03.037Z,101765.47
2022-11-06T04:59:32.381Z,101771.63
2022-11-06T05:01:59.693Z,101765.50
2022-11-06T05:04:26.937Z,101761.34
2022-11-06T05:06:54.297Z,101763.22
2022-11-06T05:09:21.238Z,101761.56
2022-11-06T05:11:48.490Z,101748.38
2022-11-06T05:14:15.356Z,101749.16
2022-11-06T05:16:42.648Z,101743.94
2022-11-06T05:19:09.676Z,101744.75
2022-11-06T05:21:55.762Z,101743.06
2022-11-06T05:24:22.708Z,101745.72
2022-11-06T05:26:53.448Z,101747.38
2022-11-06T05:29:23.288Z,101748.31
2022-11-06T05:31:50.636Z,101744.00
2022-11-06T05:34:17.605Z,101742.44
2022-11-06T05:36:44.959Z,101747.44
2022-11-06T05:39:11.781Z,101750.84
2022-11-06T05:41:39.039Z,101734.41
2022-11-06T05:44:06.113Z,101744.19
2022-11-06T05:46:48.370Z,101744.06
2022-11-06T05:49:16.192Z,101744.00
2022-11-06T05:51:43.453Z,101740.56
2022-11-06T05:54:10.288Z,101745.72
2022-11-06T05:56:37.633Z,101747.44
2022-11-06T05:59:04.524Z,101750.97
2022-11-06T06:01:32.320Z,101753.53
2022-11-06T06:03:59.379Z,101745.78
2022-11-06T06:06:27.054Z,101757.09
2022-11-06T06:08:53.966Z,101750.06
2022-11-06T06:11:21.255Z,101754.41
2022-11-06T06:13:48.584Z,101758.69
2022-11-06T06:16:16.242Z,101755.19
2022-11-06T06:18:43.236Z,101755.16
2022-11-06T06:21:10.526Z,101751.91
2022-11-06T06:23:37.373Z,101752.84
2022-11-06T06:26:05.861Z,101756.06
2022-11-06T06:28:33.063Z,101756.97
2022-11-06T06:31:03.586Z,101756.91
2022-11-06T06:33:30.564Z,101761.31
2022-11-06T06:35:58.043Z,101760.47
2022-11-06T06:38:26.071Z,101777.88
2022-11-06T06:40:54.403Z,101776.09
2022-11-06T06:43:21.360Z,101785.50
2022-11-06T06:45:48.543Z,101781.97
2022-11-06T06:48:15.870Z,101783.66
2022-11-06T06:50:43.428Z,101782.75
2022-11-06T06:53:10.296Z,101782.72
2022-11-06T06:55:37.551Z,101779.97
2022-11-06T06:58:04.695Z,101779.13
2022-11-06T07:00:32.581Z,101785.97
2022-11-06T07:02:59.542Z,101787.88
2022-11-06T07:05:26.834Z,101786.19
2022-11-06T07:07:53.795Z,101782.78
2022-11-06T07:10:21.082Z,101789.56
2022-11-06T07:12:48.124Z,101789.50
2022-11-06T07:15:15.469Z,101788.53
2022-11-06T07:17:42.504Z,101779.00
2022-11-06T07:20:10.681Z,101786.88
2022-11-06T07:22:37.925Z,101784.16
2022-11-06T07:25:05.773Z,101779.91
2022-11-06T07:27:33.717Z,101792.88
2022-11-06T07:30:01.171Z,101794.38
2022-11-06T07:32:28.319Z,101787.44
2022-11-06T07:34:55.574Z,101788.25
2022-11-06T07:37:22.627Z,101775.25
2022-11-06T07:39:49.974Z,101782.06
2022-11-06T07:42:16.878Z,101780.13
2022-11-06T07:44:44.095Z,101781.06
2022-11-06T07:47:11.029Z,101781.84
2022-11-06T07:49:38.262Z,101770.50
2022-11-06T07:52:05.809Z,101772.06
2022-11-06T07:54:33.075Z,101765.22
2022-11-06T07:57:00.023Z,101767.75
2022-11-06T07:59:27.193Z,101765.09
2022-11-06T08:01:54.240Z,101765.59
2022-11-06T08:04:21.769Z,101772.47
2022-11-06T08:06:48.738Z,101774.19
2022-11-06T08:09:16.676Z,101774.00
2022-11-06T08:11:43.539Z,101767.63
2022-11-06T08:14:11.484Z,101767.25
2022-11-06T08:16:38.343Z,101765.97
2022-11-06T08:19:06.324Z,101772.34
2022-11-06T08:21:33.451Z,101766.78
2022-11-06T08:24:00.667Z,101766.63
2022-11-06T08:26:27.745Z,101765.25
2022-11-06T08:28:55.001Z,101762.94
2022-11-06T08:31:22.007Z,101763.50
2022-11-06T08:33:49.261Z,101762.94
2022-11-06T08:36:16.916Z,101766.97
2022-11-06T08:38:47.436Z,101762.03
2022-11-06T08:41:15.359Z,101761.09
2022-11-06T08:43:42.675Z,101751.84
2022-11-06T08:46:10.494Z,101760.06
2022-11-06T08:48:38.031Z,101767.88
2022-11-06T08:51:05.635Z,101769.63
2022-11-06T08:53:33.006Z,101765.53
2022-11-06T08:56:03.072Z,101764.22
2022-11-06T08:58:30.320Z,101759.31
2022-11-06T09:00:57.336Z,101740.66
2022-11-06T09:03:24.864Z,101742.06
2022-11-06T09:05:51.920Z,101749.19
2022-11-06T09:08:19.335Z,101735.13
2022-11-06T09:10:46.316Z,101738.63
2022-11-06T09:13:13.965Z,101736.09
2022-11-06T09:15:41.318Z,101730.34
2022-11-06T09:18:09.080Z,101728.13
2022-11-06T09:20:36.124Z,101729.59
2022-11-06T09:23:07.684Z,101727.53
2022-11-06T09:25:34.625Z,101728.78
2022-11-06T09:28:02.183Z,101730.13
2022-11-06T09:30:30.359Z,101726.19
2022-11-06T09:32:59.041Z,101722.50
2022-11-06T09:35:27.016Z,101719.72
2022-11-06T09:37:54.378Z,101721.16
2022-11-06T09:40:24.620Z,101719.47
2022-11-06T09:42:51.882Z,101717.09
2022-11-06T09:45:22.970Z,101718.19
2022-11-06T09:47:53.276Z,101719.00
2022-11-06T09:50:24.023Z,101710.72
2022-11-06T09:53:01.610Z,101704.09
2022-11-06T09:55:34.865Z,101710.72
2022-11-06T09:58:05.781Z,101694.88
2022-11-06T10:00:33.263Z,101695.13
2022-11-06T10:03:00.600Z,101688.97
2022-11-06T10:05:29.013Z,101702.69
2022-11-06T10:08:06.527Z,101687.72
2022-11-06T10:10:41.625Z,101684.03
2022-11-06T10:13:27.306Z,101681.03
2022-11-06T10:16:12.512Z,101679.41
2022-11-06T10:18:39.511Z,101692.22
2022-11-06T10:21:22.900Z,101688.50
2022-11-06T10:24:00.511Z,101689.97
2022-11-06T10:26:32.675Z,101680.34
2022-11-06T10:29:13.065Z,101683.84
2022-11-06T10:31:40.328Z,101680.09
2022-11-06T10:34:07.285Z,101670.06
2022-11-06T10:36:44.982Z,101669.63
2022-11-06T10:39:20.638Z,101665.88
2022-11-06T10:41:54.688Z,101665.59
2022-11-06T10:44:22.005Z,101664.44
2022-11-06T10:46:52.408Z,101661.94
2022-11-06T10:49:29.727Z,101666.31
2022-11-06T10:52:06.182Z,101665.63
2022-11-06T10:54:56.859Z,101659.81
2022-11-06T10:57:30.279Z,101657.69
2022-11-06T10:59:57.213Z,101652.41
2022-11-06T11:02:36.342Z,101643.94
2022-11-06T11:05:10.891Z,101645.72
2022-11-06T11:07:38.240Z,101652.50
2022-11-06T11:10:34.516Z,101643.09
2022-11-06T11:13:07.900Z,101641.75
2022-11-06T11:15:42.548Z,101639.09
2022-11-06T11:18:09.940Z,101635.72
2022-11-06T11:20:38.302Z,101634.75
2022-11-06T11:23:05.624Z,101631.13
2022-11-06T11:25:32.701Z,101631.19
2022-11-06T11:28:04.634Z,101613.47
2022-11-06T11:30:32.570Z,101599.19
2022-11-06T11:32:59.800Z,101601.63
2022-11-06T11:35:28.396Z,101603.97
2022-11-06T11:38:15.885Z,101594.06
2022-11-06T11:40:43.450Z,101595.97
2022-11-06T11:43:19.911Z,101588.03
2022-11-06T11:46:02.552Z,101587.91
2022-11-06T11:48:56.267Z,101589.53
2022-11-06T11:51:29.274Z,101587.47
2022-11-06T11:53:59.644Z,101585.50
2022-11-06T11:56:50.114Z,101575.28
2022-11-06T11:59:19.286Z,101571.09
2022-11-06T12:01:47.036Z,101578.69
2022-11-06T12:04:23.529Z,101581.03
2022-11-06T12:06:51.855Z,101572.94
2022-11-06T12:09:19.261Z,101569.88
2022-11-06T12:11:46.631Z,101564.03
2022-11-06T12:14:18.397Z,101571.28
2022-11-06T12:16:46.981Z,101573.84
2022-11-06T12:19:15.130Z,101569.16
2022-11-06T12:21:44.867Z,101568.19
2022-11-06T12:24:12.216Z,101564.75
2022-11-06T12:26:42.089Z,101562.50
2022-11-06T12:29:15.907Z,101548.94
2022-11-06T12:31:46.019Z,101554.38
2022-11-06T12:34:18.089Z,101552.22
2022-11-06T12:36:53.055Z,101548.63
2022-11-06T12:39:23.262Z,101549.66
2022-11-06T12:41:51.493Z,101542.88
2022-11-06T12:44:18.517Z,101549.00
2022-11-06T12:47:08.383Z,101549.31
2022-11-06T12:49:44.579Z,101545.63
2022-11-06T12:52:27.647Z,101550.81
2022-11-06T12:55:06.974Z,101540.50
2022-11-06T12:57:34.343Z,101531.00
2022-11-06T13:00:08.764Z,101531.28
2022-11-06T13:03:05.902Z,101522.69
2022-11-06T13:05:43.629Z,101522.63
2022-11-06T13:08:29.801Z,101518.22
2022-11-06T13:11:12.472Z,101512.22
2022-11-06T13:13:44.892Z,101513.47
2022-11-06T13:16:20.728Z,101504.53
2022-11-06T13:18:58.851Z,101511.44
2022-11-06T13:21:31.424Z,101509.47
2022-11-06T13:24:07.291Z,101497.38
2022-11-06T13:26:37.332Z,101496.28
2022-11-06T13:29:06.302Z,101503.06
2022-11-06T13:31:39.847Z,101499.25
2022-11-06T13:34:12.829Z,101492.69
2022-11-06T13:36:40.185Z,101486.78
2022-11-06T13:39:15.685Z,101485.81
2022-11-06T13:41:42.715Z,101477.75
2022-11-06T13:44:16.962Z,101478.34
2022-11-06T13:46:44.060Z,101478.81
2022-11-06T13:49:11.345Z,101474.50
2022-11-06T13:51:52.935Z,101475.13
2022-11-06T13:54:24.250Z,101475.94
2022-11-06T13:57:16.320Z,101479.53
2022-11-06T13:59:58.635Z,101478.81
2022-11-06T14:02:49.828Z,101484.56
2022-11-06T14:05:33.663Z,101467.91
2022-11-06T14:08:03.746Z,101464.72
2022-11-06T14:10:37.301Z,101465.81
2022-11-06T14:13:05.834Z,101466.75
2022-11-06T14:15:42.088Z,101462.28
2022-11-06T14:18:14.606Z,101451.94
2022-11-06T14:20:42.034Z,101449.72
2022-11-06T14:23:28.200Z,101439.16
2022-11-06T14:26:01.438Z,101440.69
2022-11-06T14:28:29.682Z,101448.56
2022-11-06T14:31:15.063Z,101444.59
2022-11-06T14:33:43.598Z,101439.94
2022-11-06T14:36:27.727Z,101444.59
2022-11-06T14:38:55.017Z,101438.59
2022-11-06T14:41:34.732Z,101434.69
2022-11-06T14:44:03.472Z,101430.53
2022-11-06T14:46:31.229Z,101431.56
2022-11-06T14:49:08.243Z,101431.38
2022-11-06T14:51:36.611Z,101444.66
2022-11-06T14:54:14.377Z,101440.53
2022-11-06T14:56:41.684Z,101437.66
2022-11-06T14:59:28.845Z,101441.50
2022-11-06T15:02:03.757Z,101443.22
2022-11-06T15:04:32.210Z,101437.44
2022-11-06T15:07:07.742Z,101438.41
2022-11-06T15:09:37.742Z,101430.75
2022-11-06T15:12:08.488Z,101434.63
2022-11-06T15:14:35.432Z,101438.47
2022-11-06T15:17:13.187Z,101437.13
2022-11-06T15:19:46.730Z,101422.81
2022-11-06T15:22:35.948Z,101416.13
2022-11-06T15:25:32.313Z,101415.22
2022-11-06T15:28:13.667Z,101415.56
2022-11-06T15:30:52.543Z,101413.94
2022-11-06T15:33:27.014Z,101417.47
2022-11-06T15:35:55.992Z,101417.16
2022-11-06T15:38:24.317Z,101412.28
2022-11-06T15:40:54.076Z,101409.47
2022-11-06T15:43:31.177Z,101401.22
2022-11-06T15:46:17.010Z,101393.59
2022-11-06T15:48:44.164Z,101391.97
2022-11-06T15:51:21.833Z,101394.91
2022-11-06T15:53:49.585Z,101399.44
2022-11-06T15:56:18.412Z,101390.88
2022-11-06T15:58:45.339Z,101388.13
2022-11-06T16:01:12.807Z,101380.75
2022-11-06T16:03:44.989Z,101378.94
2022-11-06T16:06:12.931Z,101378.25
2022-11-06T16:08:41.227Z,101374.63
2022-11-06T16:11:13.474Z,101376.56
2022-11-06T16:13:41.081Z,101373.19
2022-11-06T16:16:29.276Z,101377.66
2022-11-06T16:18:56.957Z,101378.66
2022-11-06T16:21:27.087Z,101381.22
2022-11-06T16:24:11.476Z,101378.56
2022-11-06T16:26:44.546Z,101377.88
2022-11-06T16:29:16.718Z,101372.94
2022-11-06T16:31:44.585Z,101373.78
2022-11-06T16:34:32.949Z,101373.16
2022-11-06T16:37:18.772Z,101381.41
2022-11-06T16:39:49.316Z,101373.81
2022-11-06T16:42:23.721Z,101372.06
2022-11-06T16:44:51.219Z,101375.75
2022-11-06T16:47:19.454Z,101373.47
2022-11-06T16:49:53.538Z,101363.34
2022-11-06T16:52:26.267Z,101365.66
2022-11-06T16:55:05.483Z,101358.00
2022-11-06T16:57:45.504Z,101351.25
2022-11-06T17:00:21.587Z,101349.50
2022-11-06T17:02:50.675Z,101344.09
2022-11-06T17:05:22.108Z,101338.94
2022-11-06T17:08:04.846Z,101347.09
2022-11-06T17:10:34.598Z,101335.00
2022-11-06T17:13:16.200Z,101327.31
2022-11-06T17:15:44.972Z,101325.56
2022-11-06T17:18:18.127Z,101329.81
2022-11-06T17:21:04.888Z,101332.31
2022-11-06T17:23:32.880Z,101333.13
2022-11-06T17:26:02.293Z,101323.63
2022-11-06T17:28:29.643Z,101324.16
2022-11-06T17:30:56.731Z,101315.31
2022-11-06T17:33:24.098Z,101324.03
2022-11-06T17:35:51.025Z,101323.25
2022-11-06T17:38:18.401Z,101326.88
2022-11-06T17:40:45.981Z,101328.16
2022-11-06T17:43:14.013Z,101318.81
2022-11-06T17:45:42.485Z,101321.59
2022-11-06T17:48:09.799Z,101333.59
2022-11-06T17:50:55.112Z,101337.75
2022-11-06T17:53:22.778Z,101341.28
2022-11-06T17:55:49.800Z,101340.81
2022-11-06T17:58:17.087Z,101345.50
2022-11-06T18:00:44.118Z,101346.81
2022-11-06T18:03:19.219Z,101340.66
2022-11-06T18:05:46.783Z,101351.41
2022-11-06T18:08:14.712Z,101339.25
2022-11-06T18:10:42.284Z,101346.34
2022-11-06T18:13:09.550Z,101343.72
2022-11-06T18:15:36.985Z,101337.78
2022-11-06T18:18:04.496Z,101336.84
2022-11-06T18:20:31.468Z,101331.63
2022-11-06T18:22:58.761Z,101337.69
2022-11-06T18:25:25.868Z,101331.63
2022-11-06T18:27:53.155Z,101342.59
2022-11-06T18:30:20.179Z,101340.13
2022-11-06T18:32:48.169Z,101340.81
2022-11-06T18:35:15.054Z,101339.41
2022-11-06T18:37:42.319Z,101339.56
2022-11-06T18:40:09.598Z,101340.66
2022-11-06T18:42:37.266Z,101348.63
2022-11-06T18:45:04.391Z,101354.84
2022-11-06T18:47:31.628Z,101351.28
2022-11-06T18:49:58.603Z,101354.75
2022-11-06T18:52:51.607Z,101351.31
2022-11-06T18:55:13.359Z,101347.19
2022-11-06T18:57:40.619Z,101344.53
2022-11-06T19:00:07.904Z,101348.13
2022-11-06T19:02:35.466Z,101345.19
2022-11-06T19:05:02.911Z,101337.56
2022-11-06T19:07:30.340Z,101331.25
2022-11-06T19:09:57.338Z,101325.34
2022-11-06T19:12:24.649Z,101331.59
2022-11-06T19:14:51.607Z,101331.00
2022-11-06T19:17:18.807Z,101326.97
2022-11-06T19:19:46.581Z,101331.28
2022-11-06T19:22:13.983Z,101315.06
2022-11-06T19:24:41.877Z,101320.00
2022-11-06T19:27:09.617Z,101323.69
2022-11-06T19:29:36.982Z,101314.53
2022-11-06T19:32:04.840Z,101317.81
2022-11-06T19:34:36.669Z,101320.38
2022-11-06T19:37:07.510Z,101317.31
2022-11-06T19:39:35.825Z,101313.81
2022-11-06T19:42:03.553Z,101325.63
2022-11-06T19:44:31.006Z,101312.06
2022-11-06T19:46:58.696Z,101311.69
2022-11-06T19:49:26.010Z,101308.34
2022-11-06T19:51:53.688Z,101321.41
2022-11-06T19:54:21.079Z,101313.97
2022-11-06T19:57:27.667Z,101321.06
2022-11-06T19:59:38.016Z,101320.63
2022-11-06T20:02:05.574Z,101315.72
2022-11-06T20:04:33.128Z,101313.06
2022-11-06T20:07:00.937Z,101313.81
2022-11-06T20:09:28.177Z,101315.31
2022-11-06T20:11:55.943Z,101307.72
2022-11-06T20:14:23.508Z,101308.84
2022-11-06T20:16:51.452Z,101313.16
2022-11-06T20:19:18.767Z,101315.31
2022-11-06T20:21:46.678Z,101316.47
2022-11-06T20:24:14.226Z,101310.47
2022-11-06T20:26:42.311Z,101311.50
2022-11-06T20:29:10.315Z,101307.06
2022-11-06T20:31:38.141Z,101310.69
2022-11-06T20:34:06.127Z,101303.88
2022-11-06T20:36:36.108Z,101309.00
2022-11-06T20:39:04.077Z,101297.91
2022-11-06T20:41:33.467Z,101301.47
2022-11-06T20:44:01.327Z,101301.06
2022-11-06T20:46:29.096Z,101300.75
2022-11-06T20:48:57.859Z,101288.59
2022-11-06T20:51:26.377Z,101294.72
2022-11-06T20:53:53.702Z,101297.00
2022-11-06T20:56:21.938Z,101298.88
2022-11-06T20:58:48.828Z,101303.38
2022-11-06T21:01:18.345Z,101298.66
2022-11-06T21:03:46.195Z,101291.88
2022-11-06T21:06:14.100Z,101292.00
2022-11-06T21:08:41.194Z,101290.63
2022-11-06T21:11:11.452Z,101294.00
2022-11-06T21:13:40.559Z,101289.22
2022-11-06T21:16:09.705Z,101270.34
2022-11-06T21:18:37.705Z,101280.00
2022-11-06T21:21:06.379Z,101272.88
2022-11-06T21:23:34.442Z,101267.50
2022-11-06T21:26:22.356Z,101270.59
2022-11-06T21:28:49.607Z,101269.16
2022-11-06T21:31:19.021Z,101269.13
2022-11-06T21:33:49.684Z,101273.63
2022-11-06T21:36:22.531Z,101265.72
2022-11-06T21:38:49.546Z,101258.84
2022-11-06T21:41:19.746Z,101251.91
2022-11-06T21:43:48.481Z,101252.72
2022-11-06T21:46:16.412Z,101240.59
2022-11-06T21:48:47.962Z,101237.25
2022-11-06T21:51:17.160Z,101236.19
2022-11-06T21:54:03.141Z,101230.19
2022-11-06T21:56:30.945Z,101224.22
2022-11-06T21:58:58.948Z,101220.47
2022-11-06T22:01:27.017Z,101226.56
2022-11-06T22:03:54.575Z,101225.06
2022-11-06T22:06:23.764Z,101207.59
2022-11-06T22:08:51.673Z,101210.66
2022-11-06T22:11:19.303Z,101212.66
2022-11-06T22:13:47.532Z,101212.59
2022-11-06T22:16:16.200Z,101206.50
2022-11-06T22:18:43.647Z,101204.88
2022-11-06T22:21:12.516Z,101205.75
2022-11-06T22:23:41.541Z,101199.47
2022-11-06T22:26:13.107Z,101199.47
2022-11-06T22:28:40.139Z,101199.63
2022-11-06T22:31:08.373Z,101188.97
2022-11-06T22:33:35.988Z,101193.06
2022-11-06T22:36:04.536Z,101187.53
2022-11-06T22:38:32.068Z,101183.09
2022-11-06T22:41:00.416Z,101180.56
2022-11-06T22:43:27.872Z,101176.31
2022-11-06T22:46:05.945Z,101183.09
2022-11-06T22:48:33.255Z,101170.13
2022-11-06T22:51:04.140Z,101171.31
2022-11-06T22:53:31.372Z,101170.03
2022-11-06T22:55:59.425Z,101179.00
2022-11-06T22:58:26.748Z,101179.19
2022-11-06T23:00:54.511Z,101168.81
2022-11-06T23:03:21.983Z,101165.88
2022-11-06T23:05:49.267Z,101168.44
2022-11-06T23:08:16.784Z,101164.75
2022-11-06T23:10:43.696Z,101170.75
2022-11-06T23:13:11.593Z,101154.59
2022-11-06T23:15:39.699Z,101149.09
2022-11-06T23:18:07.183Z,101146.16
2022-11-06T23:20:34.816Z,101141.34
2022-11-06T23:23:02.849Z,101146.63
2022-11-06T23:25:29.865Z,101136.81
2022-11-06T23:27:58.451Z,101131.59
2022-11-06T23:30:25.675Z,101129.88
2022-11-06T23:32:52.854Z,101127.44
2022-11-06T23:35:22.719Z,101121.97
2022-11-06T23:37:50.700Z,101121.28
2022-11-06T23:40:17.800Z,101115.41
2022-11-06T23:42:45.097Z,101123.00
2022-11-06T23:45:30.658Z,101118.69
2022-11-06T23:47:57.916Z,101138.84
2022-11-06T23:50:24.800Z,101131.59
2022-11-06T23:52:52.083Z,101131.97
2022-11-06T23:55:19.029Z,101138.91
2022-11-06T23:57:46.467Z,101137.78
